Time;durP1;ratioP1;P1;durP2;ratioP2;P2;SDS_P1;SDS_P2;PMS_P1;PMS_P2;Temp;Humidity;BMP_temperature;BMP_pressure;BME280_temperature;BME280_humidity;BME280_pressure;Samples;Min_cycle;Max_cycle;Signal;HPM_P1;HPM_P2
2021/12/01 00:01:01;;;;;;;3.05;1.48;;;10.40;99.90;;;;;;5006701;28;20127;-78
2021/12/01 00:03:28;;;;;;;3.28;1.50;;;10.50;99.90;;;;;;4999941;28;20049;-72
2021/12/01 00:05:55;;;;;;;2.88;1.38;;;10.60;99.90;;;;;;4997022;28;20041;-77
2021/12/01 00:08:21;;;;;;;2.83;1.67;;;10.60;99.90;;;;;;5008354;28;20034;-71
2021/12/01 00:10:48;;;;;;;3.13;1.52;;;10.60;99.90;;;;;;4983096;28;20050;-72
2021/12/01 00:13:18;;;;;;;2.67;1.60;;;10.70;99.90;;;;;;5008007;28;20251;-75
2021/12/01 00:15:52;;;;;;;2.50;1.40;;;10.60;99.90;;;;;;4978826;28;20400;-73
2021/12/01 00:18:17;;;;;;;3.55;2.15;;;10.50;99.90;;;;;;5004604;28;20036;-72
2021/12/01 00:20:46;;;;;;;3.40;1.77;;;10.60;99.90;;;;;;5004459;28;20042;-72
2021/12/01 00:23:12;;;;;;;2.25;1.60;;;10.60;99.90;;;;;;5010054;28;20030;-73
2021/12/01 00:25:39;;;;;;;3.53;2.00;;;10.50;99.90;;;;;;5013326;28;20030;-74
2021/12/01 00:28:07;;;;;;;2.38;1.40;;;10.50;99.90;;;;;;4996611;28;20056;-73
2021/12/01 00:30:35;;;;;;;3.33;1.60;;;10.50;99.90;;;;;;5011552;28;20482;-76
2021/12/01 00:33:10;;;;;;;2.85;1.48;;;10.60;99.90;;;;;;4987388;28;20034;-72
2021/12/01 00:35:37;;;;;;;2.88;1.58;;;10.60;99.90;;;;;;4997832;28;20739;-77
2021/12/01 00:38:05;;;;;;;2.80;1.40;;;10.60;99.90;;;;;;5008142;28;20104;-73
2021/12/01 00:40:31;;;;;;;2.08;1.58;;;10.50;99.90;;;;;;5011328;28;20033;-78
2021/12/01 00:43:01;;;;;;;2.63;1.60;;;10.50;99.90;;;;;;5013103;28;20042;-73
2021/12/01 00:45:29;;;;;;;5.00;2.00;;;10.50;99.90;;;;;;4994925;28;20038;-73
2021/12/01 00:47:55;;;;;;;5.22;1.67;;;10.50;99.90;;;;;;5004439;28;20129;-74
2021/12/01 00:50:33;;;;;;;3.35;2.10;;;10.50;99.90;;;;;;5013297;28;20030;-73
2021/12/01 00:53:10;;;;;;;6.72;2.00;;;10.40;99.90;;;;;;5015239;28;20038;-72
2021/12/01 00:55:37;;;;;;;3.47;1.83;;;10.40;99.90;;;;;;4979723;28;20042;-73
2021/12/01 00:58:05;;;;;;;3.55;2.05;;;10.30;99.90;;;;;;5015228;28;20073;-72
2021/12/01 01:00:33;;;;;;;5.45;2.20;;;10.30;99.90;;;;;;5013255;28;20052;-73
2021/12/01 01:03:00;;;;;;;4.07;2.30;;;10.30;99.90;;;;;;5002066;28;20122;-75
2021/12/01 01:05:28;;;;;;;6.40;2.50;;;10.30;99.90;;;;;;5021925;28;20037;-72
2021/12/01 01:07:54;;;;;;;5.22;3.28;;;10.20;99.90;;;;;;5021375;28;20034;-73
2021/12/01 01:18:34;;;;;;;4.03;2.60;;;9.90;99.90;;;;;;5010267;28;20037;-73
2021/12/01 01:21:02;;;;;;;4.63;2.22;;;10.00;99.90;;;;;;5012318;28;20113;-73
2021/12/01 01:23:29;;;;;;;4.00;2.25;;;10.10;99.90;;;;;;4998200;28;20589;-74
2021/12/01 01:26:03;;;;;;;4.03;2.70;;;10.20;99.90;;;;;;4996770;28;20027;-76
2021/12/01 01:28:30;;;;;;;3.33;2.28;;;10.20;99.90;;;;;;4978909;28;20072;-76
2021/12/01 01:30:57;;;;;;;3.97;2.85;;;10.10;99.90;;;;;;4991974;28;20135;-72
2021/12/01 01:33:24;;;;;;;4.43;3.17;;;10.10;99.90;;;;;;4973099;28;20050;-76
2021/12/01 01:35:54;;;;;;;4.82;2.92;;;10.10;99.90;;;;;;4996988;28;20057;-73
2021/12/01 01:38:21;;;;;;;4.50;3.03;;;10.10;99.90;;;;;;4985386;28;20045;-72
2021/12/01 01:40:48;;;;;;;5.15;3.38;;;10.10;99.90;;;;;;4997133;28;20093;-79
2021/12/01 01:43:15;;;;;;;4.47;3.15;;;10.10;99.90;;;;;;5014282;28;20041;-72
2021/12/01 01:45:42;;;;;;;6.25;3.40;;;10.10;99.90;;;;;;5010092;28;20137;-76
2021/12/01 01:49:05;;;;;;;5.57;3.50;;;10.10;99.90;;;;;;4995259;28;20037;-72
2021/12/01 01:51:17;;;;;;;8.07;3.50;;;10.10;99.90;;;;;;4983358;28;20041;-78
2021/12/01 01:53:44;;;;;;;4.75;3.35;;;10.10;99.90;;;;;;5010109;28;20041;-78
2021/12/01 01:56:11;;;;;;;7.13;4.72;;;10.10;99.90;;;;;;5010727;28;20061;-72
2021/12/01 01:58:39;;;;;;;9.68;4.32;;;10.00;99.90;;;;;;5012993;28;20030;-77
2021/12/01 02:01:13;;;;;;;5.85;4.55;;;10.00;99.90;;;;;;5012103;28;20034;-73
2021/12/01 02:03:43;;;;;;;6.10;4.60;;;10.00;99.90;;;;;;4985653;28;20073;-73
2021/12/01 02:06:11;;;;;;;6.18;4.70;;;9.90;99.90;;;;;;5001395;28;20072;-77
2021/12/01 02:08:40;;;;;;;8.02;4.63;;;9.80;99.90;;;;;;4998005;28;20430;-72
2021/12/01 02:11:10;;;;;;;9.25;5.43;;;9.90;99.90;;;;;;5008284;28;20037;-72
2021/12/01 02:13:37;;;;;;;8.80;5.18;;;9.70;99.90;;;;;;5007676;28;20057;-75
2021/12/01 02:16:04;;;;;;;7.40;4.72;;;9.60;99.90;;;;;;5006184;28;20045;-73
2021/12/01 02:18:32;;;;;;;9.32;5.43;;;9.70;99.90;;;;;;5006226;28;20049;-77
2021/12/01 02:21:01;;;;;;;7.15;4.68;;;9.60;99.90;;;;;;4970064;28;20039;-73
2021/12/01 02:23:28;;;;;;;8.90;4.90;;;9.50;99.90;;;;;;4991425;28;20034;-72
2021/12/01 02:25:54;;;;;;;8.30;5.10;;;9.50;99.90;;;;;;4991202;28;20084;-74
2021/12/01 02:28:21;;;;;;;8.30;5.25;;;9.40;99.90;;;;;;5004217;28;20072;-74
2021/12/01 02:30:47;;;;;;;7.35;5.70;;;9.40;99.90;;;;;;4988707;28;20114;-72
2021/12/01 02:33:14;;;;;;;6.35;4.55;;;9.30;99.90;;;;;;5005632;28;20451;-73
2021/12/01 02:35:40;;;;;;;6.70;4.90;;;9.30;99.90;;;;;;5005076;28;20587;-74
2021/12/01 02:38:07;;;;;;;7.85;4.80;;;9.30;99.90;;;;;;5002918;28;20033;-72
2021/12/01 02:40:33;;;;;;;6.47;5.10;;;9.40;99.90;;;;;;5005647;28;20056;-73
2021/12/01 02:43:00;;;;;;;7.20;4.55;;;9.30;99.90;;;;;;4996163;28;20573;-72
2021/12/01 02:45:26;;;;;;;7.32;4.80;;;9.30;99.90;;;;;;5004576;28;20045;-72
2021/12/01 02:47:52;;;;;;;6.75;4.00;;;9.40;99.90;;;;;;5001812;28;20620;-74
2021/12/01 02:50:18;;;;;;;6.15;4.40;;;9.40;99.90;;;;;;5007551;28;20036;-72
2021/12/01 02:52:46;;;;;;;6.80;4.35;;;9.40;99.90;;;;;;5010995;28;20493;-73
2021/12/01 02:55:15;;;;;;;5.60;3.90;;;9.40;99.90;;;;;;5008348;28;20042;-73
2021/12/01 02:57:50;;;;;;;5.22;3.72;;;9.50;99.90;;;;;;5010227;28;20045;-72
2021/12/01 03:00:20;;;;;;;4.38;2.90;;;9.50;99.90;;;;;;5003647;28;20130;-74
2021/12/01 03:02:47;;;;;;;4.70;3.65;;;9.50;99.90;;;;;;5014460;28;20520;-73
2021/12/01 03:05:16;;;;;;;7.57;3.78;;;9.50;99.90;;;;;;4995335;28;20033;-73
2021/12/01 03:07:44;;;;;;;7.78;3.92;;;9.40;99.90;;;;;;5007613;28;20070;-74
2021/12/01 03:10:11;;;;;;;6.53;3.63;;;9.40;99.90;;;;;;5023289;28;20034;-73
2021/12/01 03:12:40;;;;;;;6.63;3.80;;;9.40;99.90;;;;;;5005437;28;20092;-73
2021/12/01 03:15:10;;;;;;;5.85;3.42;;;9.40;99.90;;;;;;4989254;28;20061;-72
2021/12/01 03:17:40;;;;;;;4.45;3.25;;;9.30;99.90;;;;;;4988932;28;20030;-73
2021/12/01 03:20:14;;;;;;;5.10;3.70;;;9.30;99.90;;;;;;4990513;28;20162;-71
2021/12/01 03:22:43;;;;;;;3.80;2.97;;;9.40;99.90;;;;;;5005083;28;20116;-73
2021/12/01 03:25:11;;;;;;;5.20;3.55;;;9.30;99.90;;;;;;5002589;28;20085;-72
2021/12/01 03:27:38;;;;;;;4.88;2.85;;;9.30;99.90;;;;;;4991904;28;20034;-72
2021/12/01 03:30:10;;;;;;;4.80;3.30;;;9.30;99.90;;;;;;4998294;28;20041;-78
2021/12/01 03:32:39;;;;;;;4.82;3.25;;;9.40;99.90;;;;;;5006743;28;20489;-73
2021/12/01 03:35:09;;;;;;;4.68;2.97;;;9.30;99.90;;;;;;4993498;28;20066;-72
2021/12/01 03:37:38;;;;;;;17.30;3.88;;;9.30;99.90;;;;;;4987478;28;20053;-72
2021/12/01 03:40:06;;;;;;;4.75;3.20;;;9.30;99.90;;;;;;4999828;28;20038;-72
2021/12/01 03:42:32;;;;;;;3.03;2.25;;;9.30;99.90;;;;;;5011236;28;20030;-74
2021/12/01 03:44:58;;;;;;;4.43;2.70;;;9.40;99.90;;;;;;4999725;28;20497;-73
2021/12/01 03:47:26;;;;;;;4.72;2.88;;;9.40;99.90;;;;;;5009951;28;20509;-75
2021/12/01 03:49:53;;;;;;;4.07;2.90;;;9.40;99.90;;;;;;4982678;28;20038;-72
2021/12/01 03:52:21;;;;;;;5.35;2.65;;;9.40;99.90;;;;;;4993885;28;20038;-75
2021/12/01 03:54:48;;;;;;;4.60;2.80;;;9.30;99.90;;;;;;4999094;28;20056;-73
2021/12/01 03:57:15;;;;;;;4.03;3.00;;;9.30;99.90;;;;;;5020888;28;20579;-72
2021/12/01 03:59:42;;;;;;;4.45;2.88;;;9.30;99.90;;;;;;4972712;28;20133;-75
2021/12/01 04:02:08;;;;;;;5.32;3.05;;;9.20;99.90;;;;;;5001557;28;20032;-74
2021/12/01 04:04:36;;;;;;;5.07;3.10;;;9.20;99.90;;;;;;5016364;28;20356;-73
2021/12/01 04:07:02;;;;;;;4.95;3.17;;;9.20;99.90;;;;;;4989156;28;20087;-74
2021/12/01 04:09:30;;;;;;;5.53;3.28;;;9.20;99.90;;;;;;4978496;28;20046;-72
2021/12/01 04:11:57;;;;;;;5.10;3.55;;;9.20;99.90;;;;;;4998705;28;20875;-73
2021/12/01 04:14:24;;;;;;;4.65;3.13;;;9.10;99.90;;;;;;5007384;28;20393;-72
2021/12/01 04:16:51;;;;;;;5.07;3.45;;;9.10;99.90;;;;;;5001495;28;20038;-74
2021/12/01 04:19:17;;;;;;;5.28;3.35;;;9.00;99.90;;;;;;5003739;28;20033;-73
2021/12/01 04:21:44;;;;;;;4.60;3.30;;;9.10;99.90;;;;;;5011366;28;20042;-73
2021/12/01 04:24:10;;;;;;;4.43;3.10;;;9.00;99.90;;;;;;4974878;28;20955;-73
2021/12/01 04:26:38;;;;;;;4.97;3.08;;;9.00;99.90;;;;;;5009556;28;20037;-72
2021/12/01 04:29:05;;;;;;;5.65;4.00;;;9.00;99.90;;;;;;5000689;28;20026;-73
2021/12/01 04:31:35;;;;;;;7.00;3.80;;;9.10;99.90;;;;;;4986605;28;21138;-74
2021/12/01 04:34:03;;;;;;;4.15;3.17;;;9.10;99.90;;;;;;5009952;28;20059;-74
2021/12/01 04:36:37;;;;;;;4.13;2.95;;;9.10;99.90;;;;;;4978020;28;20058;-72
2021/12/01 04:39:06;;;;;;;5.95;3.80;;;9.20;99.90;;;;;;4998418;28;20095;-72
2021/12/01 04:41:41;;;;;;;4.47;3.15;;;9.10;99.90;;;;;;5003973;28;20438;-73
2021/12/01 04:44:12;;;;;;;3.60;2.58;;;9.10;99.90;;;;;;5010038;28;20069;-74
2021/12/01 04:46:46;;;;;;;4.43;3.20;;;9.20;99.90;;;;;;4993289;28;20049;-74
2021/12/01 04:49:18;;;;;;;3.88;2.65;;;9.10;99.90;;;;;;4970008;28;20230;-73
2021/12/01 04:51:48;;;;;;;5.03;3.25;;;9.20;99.90;;;;;;4975110;28;20529;-74
2021/12/01 04:54:15;;;;;;;3.83;2.60;;;9.20;99.90;;;;;;5016962;28;20056;-73
2021/12/01 04:56:43;;;;;;;4.18;2.95;;;9.20;99.90;;;;;;4999544;28;20763;-73
2021/12/01 04:59:10;;;;;;;6.00;3.50;;;9.10;99.90;;;;;;4991506;28;20768;-73
2021/12/01 05:01:37;;;;;;;4.68;2.95;;;9.00;99.90;;;;;;4983683;28;20043;-74
2021/12/01 05:04:05;;;;;;;4.13;2.92;;;9.10;99.90;;;;;;5007132;28;20501;-72
2021/12/01 05:06:33;;;;;;;5.45;2.88;;;9.00;99.90;;;;;;4997991;28;20120;-77
2021/12/01 05:09:00;;;;;;;4.35;2.63;;;9.00;99.90;;;;;;5023069;28;20037;-73
2021/12/01 05:11:26;;;;;;;4.07;2.95;;;9.00;99.90;;;;;;4982333;28;20035;-73
2021/12/01 05:13:53;;;;;;;4.55;2.90;;;9.00;99.90;;;;;;4993316;28;20494;-72
2021/12/01 05:16:20;;;;;;;3.78;2.28;;;9.00;99.90;;;;;;4995254;28;20117;-74
2021/12/01 05:18:47;;;;;;;3.40;2.10;;;9.10;99.90;;;;;;4990738;28;20134;-72
2021/12/01 05:21:13;;;;;;;3.42;1.90;;;9.00;99.90;;;;;;5004857;28;20039;-76
2021/12/01 05:23:40;;;;;;;3.25;2.25;;;9.20;99.90;;;;;;4993445;28;20046;-75
2021/12/01 05:26:09;;;;;;;2.60;2.10;;;9.20;99.90;;;;;;4996535;28;20517;-74
2021/12/01 05:28:36;;;;;;;4.05;2.47;;;9.20;99.90;;;;;;5005138;28;20042;-72
2021/12/01 05:31:05;;;;;;;3.30;2.33;;;9.20;99.90;;;;;;4996595;28;20042;-74
2021/12/01 05:33:31;;;;;;;3.92;2.40;;;9.10;99.90;;;;;;4977211;28;20038;-77
2021/12/01 05:35:57;;;;;;;3.63;2.50;;;9.10;99.90;;;;;;5010378;28;20057;-74
2021/12/01 05:38:23;;;;;;;3.85;2.70;;;9.00;99.90;;;;;;5007104;28;20050;-72
2021/12/01 05:40:50;;;;;;;5.05;3.53;;;9.00;99.90;;;;;;4988345;28;20046;-77
2021/12/01 05:43:19;;;;;;;4.10;3.17;;;8.90;99.90;;;;;;4988648;28;20118;-72
2021/12/01 05:45:46;;;;;;;4.93;2.90;;;8.80;99.90;;;;;;4999128;28;20038;-73
2021/12/01 05:48:16;;;;;;;4.45;3.20;;;8.90;99.90;;;;;;5007351;28;20099;-75
2021/12/01 05:50:42;;;;;;;4.32;2.35;;;8.90;99.90;;;;;;5013702;28;20045;-74
2021/12/01 05:53:09;;;;;;;4.03;2.30;;;8.90;99.90;;;;;;5006196;28;20129;-73
2021/12/01 05:55:38;;;;;;;3.08;2.22;;;9.00;99.90;;;;;;5009444;28;20042;-73
2021/12/01 05:58:05;;;;;;;3.70;2.40;;;8.90;99.90;;;;;;5011800;28;20045;-72
2021/12/01 06:00:31;;;;;;;2.90;2.20;;;8.90;99.90;;;;;;5013089;28;20413;-78
2021/12/01 06:02:57;;;;;;;3.58;2.30;;;9.00;99.90;;;;;;4999662;28;20042;-72
2021/12/01 06:05:25;;;;;;;4.40;2.25;;;9.10;99.90;;;;;;5000209;28;20361;-72
2021/12/01 06:07:51;;;;;;;4.00;2.50;;;9.10;99.90;;;;;;5008482;28;20031;-75
2021/12/01 06:10:17;;;;;;;2.95;2.22;;;9.00;99.90;;;;;;5012764;28;20037;-72
2021/12/01 06:12:46;;;;;;;3.97;2.95;;;9.00;99.90;;;;;;5017466;28;20415;-76
2021/12/01 06:15:16;;;;;;;4.68;2.40;;;9.10;99.90;;;;;;4999515;28;20041;-72
2021/12/01 06:17:42;;;;;;;3.88;2.42;;;9.00;99.90;;;;;;4987414;28;20466;-76
2021/12/01 06:20:10;;;;;;;4.53;2.72;;;9.00;99.90;;;;;;4996726;28;20076;-72
2021/12/01 06:22:36;;;;;;;6.82;2.80;;;9.10;99.90;;;;;;5002597;28;20041;-78
2021/12/01 06:25:03;;;;;;;4.80;3.22;;;9.00;99.90;;;;;;5012820;28;20037;-74
2021/12/01 06:27:30;;;;;;;5.10;3.40;;;8.90;99.90;;;;;;5010017;28;20041;-74
2021/12/01 06:29:56;;;;;;;6.47;3.35;;;8.80;99.90;;;;;;5014356;28;20077;-76
2021/12/01 06:32:22;;;;;;;4.93;3.47;;;8.70;99.90;;;;;;4998212;28;20045;-74
2021/12/01 06:34:49;;;;;;;5.50;3.50;;;8.70;99.90;;;;;;5008355;28;20144;-77
2021/12/01 06:37:18;;;;;;;5.45;3.63;;;8.60;99.90;;;;;;4989794;28;20052;-74
2021/12/01 06:39:46;;;;;;;5.25;3.45;;;8.70;99.90;;;;;;5008284;28;20051;-73
2021/12/01 06:42:13;;;;;;;4.78;3.60;;;8.50;99.90;;;;;;4995186;28;20107;-77
2021/12/01 06:44:39;;;;;;;7.28;3.55;;;8.60;99.90;;;;;;5009679;28;20045;-73
2021/12/01 06:47:05;;;;;;;6.75;3.90;;;8.60;99.90;;;;;;5011645;28;20366;-75
2021/12/01 06:49:31;;;;;;;5.18;3.42;;;8.70;99.90;;;;;;5006034;28;20756;-74
2021/12/01 06:51:57;;;;;;;4.78;3.85;;;8.70;99.90;;;;;;4997158;28;20034;-73
2021/12/01 06:54:24;;;;;;;5.93;3.47;;;8.70;99.90;;;;;;5012763;28;20046;-76
2021/12/01 06:56:51;;;;;;;7.22;4.65;;;8.80;99.90;;;;;;5001526;28;20055;-75
2021/12/01 06:59:17;;;;;;;5.60;3.95;;;8.70;99.90;;;;;;5006712;28;20125;-73
2021/12/01 07:01:43;;;;;;;6.63;3.95;;;8.80;99.90;;;;;;5012867;28;20124;-76
2021/12/01 07:04:12;;;;;;;6.38;3.90;;;8.80;99.90;;;;;;4994331;28;20156;-74
2021/12/01 07:06:38;;;;;;;6.47;3.90;;;8.80;99.90;;;;;;4997965;28;20039;-76
2021/12/01 07:09:04;;;;;;;5.88;3.80;;;8.90;99.90;;;;;;4985705;28;20136;-74
2021/12/01 07:11:31;;;;;;;8.20;3.80;;;9.00;99.90;;;;;;5011682;28;20476;-75
2021/12/01 07:13:57;;;;;;;8.00;4.22;;;9.00;99.90;;;;;;4985038;28;20034;-75
2021/12/01 07:16:23;;;;;;;7.03;4.40;;;9.00;99.90;;;;;;4997104;28;20050;-73
2021/12/01 07:18:50;;;;;;;6.70;4.22;;;9.00;99.90;;;;;;4999860;28;20140;-73
2021/12/01 07:21:16;;;;;;;5.03;3.90;;;8.90;99.90;;;;;;4995129;28;20053;-74
2021/12/01 07:23:42;;;;;;;5.18;3.70;;;9.00;99.90;;;;;;5005100;28;20099;-73
2021/12/01 07:26:08;;;;;;;6.28;4.10;;;9.10;99.90;;;;;;4988198;28;20042;-73
2021/12/01 07:28:34;;;;;;;5.85;4.47;;;9.10;99.90;;;;;;5000321;28;20088;-77
2021/12/01 07:31:01;;;;;;;8.07;4.07;;;9.20;99.90;;;;;;4993366;28;20037;-73
2021/12/01 07:33:27;;;;;;;6.70;4.00;;;9.30;99.90;;;;;;5008094;28;20421;-73
2021/12/01 07:35:54;;;;;;;5.53;4.07;;;9.30;99.90;;;;;;5014170;28;20128;-77
2021/12/01 07:38:21;;;;;;;6.43;4.70;;;9.30;99.90;;;;;;4983200;28;20485;-73
2021/12/01 07:40:47;;;;;;;6.35;4.72;;;9.30;99.90;;;;;;5014209;28;20038;-75
2021/12/01 07:43:14;;;;;;;6.28;4.40;;;9.30;99.90;;;;;;5000827;28;20042;-76
2021/12/01 07:45:44;;;;;;;7.18;4.63;;;9.40;99.90;;;;;;5010219;28;20061;-73
2021/12/01 07:48:14;;;;;;;11.60;5.00;;;9.40;99.90;;;;;;5015040;28;20044;-73
2021/12/01 07:50:41;;;;;;;8.77;4.68;;;9.40;99.90;;;;;;5013496;28;20831;-76
2021/12/01 07:53:07;;;;;;;7.15;4.32;;;9.40;99.90;;;;;;5010974;28;20385;-73
2021/12/01 07:55:33;;;;;;;7.35;4.97;;;9.50;99.90;;;;;;5015066;28;20072;-78
2021/12/01 07:58:00;;;;;;;8.32;5.25;;;9.50;99.90;;;;;;5009438;28;20034;-76
2021/12/01 08:00:27;;;;;;;6.78;5.18;;;9.60;99.90;;;;;;5011911;28;20063;-74
2021/12/01 08:02:55;;;;;;;10.75;5.18;;;9.60;99.90;;;;;;5013956;28;20042;-74
2021/12/01 08:05:22;;;;;;;7.82;6.00;;;9.70;99.90;;;;;;5013287;28;20060;-77
2021/12/01 08:07:50;;;;;;;7.90;4.88;;;10.10;99.90;;;;;;5014304;28;20438;-74
2021/12/01 08:10:16;;;;;;;8.77;5.50;;;10.40;99.90;;;;;;5016859;28;20037;-75
2021/12/01 08:12:42;;;;;;;11.13;6.78;;;10.30;99.90;;;;;;5011323;28;20074;-75
2021/12/01 08:15:09;;;;;;;9.63;6.38;;;11.60;99.90;;;;;;5008885;28;20084;-73
2021/12/01 08:17:36;;;;;;;8.73;6.05;;;12.70;99.90;;;;;;5011298;28;20113;-79
2021/12/01 08:20:03;;;;;;;8.60;5.07;;;13.30;99.90;;;;;;5011639;28;20047;-73
2021/12/01 08:22:29;;;;;;;6.63;4.95;;;14.00;99.90;;;;;;5010869;28;20139;-75
2021/12/01 08:24:57;;;;;;;7.05;4.90;;;14.00;99.90;;;;;;5014804;28;20080;-72
2021/12/01 08:27:25;;;;;;;6.43;5.00;;;14.30;99.90;;;;;;5011367;28;20092;-75
2021/12/01 08:29:51;;;;;;;8.32;5.50;;;14.10;99.90;;;;;;4995931;28;20038;-77
2021/12/01 08:32:18;;;;;;;5.53;4.78;;;14.00;99.90;;;;;;4995501;28;20543;-74
2021/12/01 08:34:49;;;;;;;7.88;5.13;;;14.70;99.90;;;;;;4992158;28;20050;-74
2021/12/01 08:37:18;;;;;;;8.40;5.35;;;14.80;99.90;;;;;;4993397;28;20069;-77
2021/12/01 08:39:50;;;;;;;9.93;5.53;;;15.30;99.90;;;;;;4974595;28;20124;-76
2021/12/01 08:42:17;;;;;;;8.27;5.68;;;15.30;99.90;;;;;;4997154;28;20042;-73
2021/12/01 08:44:45;;;;;;;7.57;5.40;;;14.50;99.90;;;;;;4991130;28;20060;-76
2021/12/01 08:47:17;;;;;;;6.38;5.00;;;13.90;99.90;;;;;;5001701;28;20039;-74
2021/12/01 08:49:44;;;;;;;6.93;4.90;;;13.40;99.90;;;;;;4993490;28;20046;-75
2021/12/01 08:52:10;;;;;;;7.00;4.90;;;13.10;99.90;;;;;;4968975;28;20046;-76
2021/12/01 08:54:38;;;;;;;7.47;4.72;;;12.50;99.90;;;;;;4969742;28;20073;-76
2021/12/01 08:57:05;;;;;;;7.57;5.20;;;12.30;99.90;;;;;;4972001;28;20584;-74
2021/12/01 08:59:32;;;;;;;5.82;4.30;;;11.90;99.90;;;;;;4981431;28;20046;-75
2021/12/01 09:02:00;;;;;;;9.93;4.78;;;11.80;99.90;;;;;;4986156;28;20050;-74
2021/12/01 09:04:27;;;;;;;7.78;5.13;;;11.90;99.90;;;;;;4970529;28;20089;-76
2021/12/01 09:06:53;;;;;;;7.55;5.35;;;11.90;99.90;;;;;;4974719;28;20429;-73
2021/12/01 09:09:19;;;;;;;6.10;4.93;;;11.60;99.90;;;;;;4971182;28;20039;-76
2021/12/01 09:11:51;;;;;;;7.00;5.30;;;11.70;99.90;;;;;;4975970;28;20057;-77
2021/12/01 09:14:19;;;;;;;7.97;5.25;;;11.80;99.90;;;;;;4980428;28;20057;-73
2021/12/01 09:16:46;;;;;;;8.27;5.57;;;11.80;99.90;;;;;;4995860;28;20469;-75
2021/12/01 09:19:13;;;;;;;7.22;5.30;;;11.70;99.90;;;;;;4995406;28;20508;-75
2021/12/01 09:21:39;;;;;;;8.38;5.28;;;11.60;99.90;;;;;;4995766;28;20037;-75
2021/12/01 09:24:06;;;;;;;8.45;4.97;;;11.50;99.90;;;;;;4984734;28;20053;-73
2021/12/01 09:26:33;;;;;;;8.07;5.25;;;11.50;99.90;;;;;;4995026;28;20129;-73
2021/12/01 09:29:00;;;;;;;8.43;5.68;;;11.60;99.90;;;;;;4988080;28;22243;-77
2021/12/01 09:31:27;;;;;;;10.32;6.38;;;11.50;99.90;;;;;;4986301;28;20053;-75
2021/12/01 09:33:53;;;;;;;9.35;5.53;;;11.50;99.90;;;;;;4983246;28;20042;-76
2021/12/01 09:36:19;;;;;;;11.43;5.97;;;11.70;99.90;;;;;;5019315;28;20046;-73
2021/12/01 09:38:45;;;;;;;7.55;5.53;;;11.60;99.90;;;;;;4989995;28;20054;-73
2021/12/01 09:41:12;;;;;;;7.68;4.93;;;11.50;99.90;;;;;;4987843;28;20046;-76
2021/12/01 09:43:39;;;;;;;7.00;5.28;;;11.60;99.90;;;;;;5017960;28;20035;-75
2021/12/01 09:46:09;;;;;;;8.18;5.40;;;11.20;99.90;;;;;;4979975;28;20050;-74
2021/12/01 09:48:36;;;;;;;8.68;5.10;;;11.30;99.90;;;;;;4979593;28;20102;-73
2021/12/01 09:51:03;;;;;;;8.95;5.78;;;11.50;99.90;;;;;;4968143;28;20041;-75
2021/12/01 09:53:29;;;;;;;11.60;6.00;;;11.70;99.90;;;;;;4956292;28;20066;-74
2021/12/01 09:55:55;;;;;;;9.88;5.50;;;11.60;99.90;;;;;;4986198;28;20287;-75
2021/12/01 09:58:25;;;;;;;9.35;5.35;;;11.70;99.90;;;;;;4991272;28;20050;-78
2021/12/01 10:00:58;;;;;;;7.47;5.18;;;11.70;99.90;;;;;;4996074;28;20034;-78
2021/12/01 10:03:24;;;;;;;8.05;5.35;;;11.70;99.90;;;;;;4977561;28;20058;-76
2021/12/01 10:06:01;;;;;;;8.40;5.03;;;11.90;99.90;;;;;;4960379;28;20046;-76
2021/12/01 10:08:34;;;;;;;10.20;5.68;;;11.80;99.90;;;;;;4984327;28;20046;-76
2021/12/01 10:11:06;;;;;;;8.82;5.30;;;12.20;99.90;;;;;;4999514;28;20069;-73
2021/12/01 10:13:37;;;;;;;7.18;4.85;;;12.50;99.90;;;;;;4974422;28;20053;-74
2021/12/01 10:16:06;;;;;;;8.23;5.22;;;12.40;99.90;;;;;;4995043;28;20507;-72
2021/12/01 10:18:45;;;;;;;7.43;4.80;;;12.50;99.90;;;;;;4998846;28;20042;-73
2021/12/01 10:21:23;;;;;;;7.78;5.22;;;12.50;99.90;;;;;;4984431;28;20069;-72
2021/12/01 10:23:56;;;;;;;7.10;4.63;;;12.50;99.90;;;;;;4993569;28;20046;-72
2021/12/01 10:26:43;;;;;;;8.07;4.78;;;12.40;99.90;;;;;;4987425;28;20042;-77
2021/12/01 10:29:18;;;;;;;5.43;4.10;;;12.20;99.90;;;;;;4967279;28;20095;-77
2021/12/01 10:31:53;;;;;;;7.82;4.40;;;12.00;99.90;;;;;;4982810;28;23588;-72
2021/12/01 10:34:32;;;;;;;6.13;4.18;;;12.30;99.90;;;;;;4968186;28;20050;-73
2021/12/01 10:37:26;;;;;;;6.28;4.53;;;12.40;99.90;;;;;;4991462;28;21476;-74
2021/12/01 10:40:10;;;;;;;6.30;4.55;;;12.30;99.90;;;;;;4990742;28;20201;-73
2021/12/01 10:43:20;;;;;;;5.43;3.90;;;12.40;99.90;;;;;;4989303;28;20103;-74
2021/12/01 10:45:48;;;;;;;9.75;4.70;;;12.40;99.90;;;;;;4975525;28;20524;-74
2021/12/01 10:48:24;;;;;;;6.55;4.55;;;12.10;99.90;;;;;;4969627;28;20035;-72
2021/12/01 10:50:51;;;;;;;10.65;4.72;;;12.00;99.90;;;;;;4985801;28;20758;-79
2021/12/01 10:53:22;;;;;;;5.55;4.03;;;11.70;99.90;;;;;;4985163;28;20109;-74
2021/12/01 10:56:09;;;;;;;7.75;4.75;;;12.00;99.90;;;;;;4990190;28;20044;-75
2021/12/01 10:58:40;;;;;;;6.72;4.47;;;12.30;99.90;;;;;;4962533;28;20762;-75
2021/12/01 11:01:27;;;;;;;6.07;3.88;;;12.70;99.90;;;;;;4976648;28;20037;-79
2021/12/01 11:03:54;;;;;;;7.55;3.90;;;12.60;99.90;;;;;;4991587;28;20750;-79
2021/12/01 11:06:22;;;;;;;6.47;4.38;;;12.50;99.90;;;;;;4992842;28;20042;-71
2021/12/01 11:08:58;;;;;;;6.68;4.03;;;12.40;99.90;;;;;;4983666;28;20100;-73
2021/12/01 11:11:42;;;;;;;7.97;4.05;;;12.40;99.90;;;;;;4929490;28;20046;-73
2021/12/01 11:14:22;;;;;;;5.93;4.00;;;12.40;99.90;;;;;;4969437;28;20417;-75
2021/12/01 11:16:49;;;;;;;6.95;4.18;;;12.40;99.90;;;;;;4965465;28;20057;-79
2021/12/01 11:19:15;;;;;;;5.28;3.60;;;12.60;99.90;;;;;;4989227;28;20057;-72
2021/12/01 11:21:41;;;;;;;7.85;4.47;;;12.60;99.90;;;;;;4986286;28;20106;-74
2021/12/01 11:24:11;;;;;;;4.90;3.55;;;12.80;99.90;;;;;;4976339;28;20089;-73
2021/12/01 11:26:42;;;;;;;5.95;4.43;;;12.90;99.90;;;;;;4983077;28;20485;-76
2021/12/01 11:29:12;;;;;;;8.10;4.32;;;12.80;99.90;;;;;;4969636;28;20540;-74
2021/12/01 11:31:39;;;;;;;6.65;4.05;;;12.50;99.90;;;;;;4993032;28;20460;-73
2021/12/01 11:34:13;;;;;;;6.38;3.95;;;12.60;99.90;;;;;;4981851;28;20046;-73
2021/12/01 11:36:43;;;;;;;6.43;4.03;;;12.70;99.90;;;;;;4966845;28;25429;-74
2021/12/01 11:39:19;;;;;;;5.70;3.42;;;12.60;99.90;;;;;;4984676;28;20673;-73
2021/12/01 11:41:47;;;;;;;7.35;4.20;;;12.70;99.90;;;;;;4983130;28;20041;-75
2021/12/01 11:44:18;;;;;;;6.18;3.97;;;12.70;99.90;;;;;;4990599;28;20600;-75
2021/12/01 11:46:51;;;;;;;;;;;12.60;99.90;;;;;;4970310;28;20057;-73
2021/12/01 11:49:22;;;;;;;6.75;4.35;;;12.90;99.90;;;;;;4967350;28;19921;-76
2021/12/01 11:51:55;;;;;;;8.93;4.07;;;13.70;99.90;;;;;;4970189;28;20049;-75
2021/12/01 11:54:23;;;;;;;5.63;3.95;;;13.90;99.90;;;;;;4989635;28;20034;-79
2021/12/01 11:57:00;;;;;;;6.63;4.25;;;13.90;99.90;;;;;;4959838;28;20093;-74
2021/12/01 11:59:29;;;;;;;8.38;4.40;;;14.70;99.90;;;;;;4964762;28;20042;-73
2021/12/01 12:02:22;;;;;;;7.90;4.13;;;14.80;99.90;;;;;;4990214;28;20117;-73
2021/12/01 12:04:52;;;;;;;6.57;4.50;;;14.40;99.90;;;;;;4964036;28;20385;-77
2021/12/01 12:07:31;;;;;;;6.72;4.28;;;14.50;99.90;;;;;;4973616;28;20062;-74
2021/12/01 12:10:13;;;;;;;5.78;4.18;;;15.20;99.90;;;;;;4979953;28;20034;-75
2021/12/01 12:13:00;;;;;;;6.43;3.63;;;14.90;99.90;;;;;;4985487;28;20405;-74
2021/12/01 12:15:52;;;;;;;6.82;3.90;;;15.20;99.90;;;;;;4986498;28;20060;-74
2021/12/01 12:18:36;;;;;;;7.13;4.10;;;15.00;99.90;;;;;;4988531;28;20038;-75
2021/12/01 12:21:18;;;;;;;4.57;3.33;;;16.20;99.90;;;;;;4981039;28;20495;-75
2021/12/01 12:23:48;;;;;;;4.70;3.30;;;16.10;99.90;;;;;;4980318;28;22151;-74
2021/12/01 12:26:32;;;;;;;5.38;3.67;;;15.90;99.90;;;;;;4982553;28;20700;-74
2021/12/01 12:29:07;;;;;;;5.75;3.65;;;16.90;99.60;;;;;;4988286;28;20039;-75
2021/12/01 12:31:35;;;;;;;6.90;3.38;;;16.60;99.40;;;;;;4974119;28;20042;-73
2021/12/01 12:34:08;;;;;;;4.82;3.25;;;17.50;99.10;;;;;;4986816;28;20378;-77
2021/12/01 12:36:37;;;;;;;4.90;3.08;;;17.90;97.70;;;;;;4956479;28;20394;-78
2021/12/01 12:39:17;;;;;;;6.15;3.10;;;18.70;97.30;;;;;;4986355;28;20458;-74
2021/12/01 12:41:58;;;;;;;4.20;2.50;;;19.60;96.20;;;;;;4975418;28;20046;-74
2021/12/01 12:44:41;;;;;;;3.63;2.45;;;19.00;95.90;;;;;;4999354;28;20042;-73
2021/12/01 12:47:12;;;;;;;3.97;2.47;;;19.50;95.10;;;;;;4975357;28;20030;-74
2021/12/01 12:49:51;;;;;;;5.25;2.60;;;20.20;94.90;;;;;;4999824;28;20457;-78
2021/12/01 12:52:26;;;;;;;3.65;2.33;;;20.10;94.10;;;;;;4994541;28;20088;-79
2021/12/01 12:55:10;;;;;;;3.67;2.30;;;20.90;93.50;;;;;;5000137;28;20043;-77
2021/12/01 12:57:56;;;;;;;4.03;2.20;;;21.40;93.10;;;;;;4977778;28;20628;-73
2021/12/01 13:00:33;;;;;;;3.75;2.42;;;20.30;92.70;;;;;;4986951;28;20517;-76
2021/12/01 13:03:23;;;;;;;4.13;2.55;;;20.90;92.30;;;;;;5001125;28;20039;-74
2021/12/01 13:05:56;;;;;;;3.10;2.40;;;21.40;92.40;;;;;;4979719;28;20043;-73
2021/12/01 13:08:32;;;;;;;3.75;2.33;;;20.80;92.00;;;;;;4987355;28;20497;-73
2021/12/01 13:11:00;;;;;;;5.15;2.35;;;19.90;93.00;;;;;;5002575;28;20033;-73